sensor_id;sensor_type;location;lat;lon;timestamp;pressure;altitude;pressure_sealevel;temperature;humidity
3150;BME280;32503;47.748;8.960;2023-03-16T00:01:20;97205.72;;;5.18;56.13
3150;BME280;32503;47.748;8.960;2023-03-16T00:03:47;97210.31;;;5.17;56.28
3150;BME280;32503;47.748;8.960;2023-03-16T00:06:14;97210.31;;;5.17;55.99
3150;BME280;32503;47.748;8.960;2023-03-16T00:08:41;97210.88;;;5.05;56.57
3150;BME280;32503;47.748;8.960;2023-03-16T00:11:09;97205.69;;;5.09;56.31
3150;BME280;32503;47.748;8.960;2023-03-16T00:13:37;97207.09;;;5.06;56.32
3150;BME280;32503;47.748;8.960;2023-03-16T00:16:05;97205.19;;;4.98;56.92
3150;BME280;32503;47.748;8.960;2023-03-16T00:18:33;97206.88;;;4.94;57.16
3150;BME280;32503;47.748;8.960;2023-03-16T00:21:05;97199.47;;;4.91;57.03
3150;BME280;32503;47.748;8.960;2023-03-16T00:23:33;97201.50;;;4.85;57.28
3150;BME280;32503;47.748;8.960;2023-03-16T00:26:03;97187.25;;;4.76;57.39
3150;BME280;32503;47.748;8.960;2023-03-16T00:28:32;97200.94;;;4.74;57.66
3150;BME280;32503;47.748;8.960;2023-03-16T00:31:01;97197.63;;;4.69;57.75
3150;BME280;32503;47.748;8.960;2023-03-16T00:33:28;97205.78;;;4.64;57.81
3150;BME280;32503;47.748;8.960;2023-03-16T00:36:00;97208.34;;;4.69;58.04
3150;BME280;32503;47.748;8.960;2023-03-16T00:38:30;97197.00;;;4.72;57.63
3150;BME280;32503;47.748;8.960;2023-03-16T00:40:57;97189.88;;;4.67;58.08
3150;BME280;32503;47.748;8.960;2023-03-16T00:43:24;97193.97;;;4.65;58.24
3150;BME280;32503;47.748;8.960;2023-03-16T00:45:57;97195.38;;;4.62;58.37
3150;BME280;32503;47.748;8.960;2023-03-16T00:48:25;97188.16;;;4.63;58.59
3150;BME280;32503;47.748;8.960;2023-03-16T00:50:53;97191.13;;;4.61;58.23
3150;BME280;32503;47.748;8.960;2023-03-16T00:53:21;97188.16;;;4.63;58.23
3150;BME280;32503;47.748;8.960;2023-03-16T00:55:48;97175.84;;;4.62;58.05
3150;BME280;32503;47.748;8.960;2023-03-16T00:58:18;97166.84;;;4.58;58.00
3150;BME280;32503;47.748;8.960;2023-03-16T01:00:45;97172.69;;;4.60;57.93
3150;BME280;32503;47.748;8.960;2023-03-16T01:03:17;97170.91;;;4.55;58.19
3150;BME280;32503;47.748;8.960;2023-03-16T01:05:45;97168.38;;;4.50;58.08
3150;BME280;32503;47.748;8.960;2023-03-16T01:08:12;97167.13;;;4.47;58.34
3150;BME280;32503;47.748;8.960;2023-03-16T01:10:40;97174.59;;;4.36;58.99
3150;BME280;32503;47.748;8.960;2023-03-16T01:13:07;97175.03;;;4.30;59.19
3150;BME280;32503;47.748;8.960;2023-03-16T01:15:34;97173.09;;;4.22;59.82
3150;BME280;32503;47.748;8.960;2023-03-16T01:18:01;97174.31;;;4.15;59.81
3150;BME280;32503;47.748;8.960;2023-03-16T01:20:29;97178.06;;;4.14;59.88
3150;BME280;32503;47.748;8.960;2023-03-16T01:22:58;97167.06;;;4.16;60.00
3150;BME280;32503;47.748;8.960;2023-03-16T01:25:25;97161.22;;;4.14;59.69
3150;BME280;32503;47.748;8.960;2023-03-16T01:27:53;97172.72;;;4.14;59.53
3150;BME280;32503;47.748;8.960;2023-03-16T01:30:20;97176.81;;;4.12;59.42
3150;BME280;32503;47.748;8.960;2023-03-16T01:32:47;97171.75;;;4.10;59.32
3150;BME280;32503;47.748;8.960;2023-03-16T01:35:14;97165.81;;;4.13;59.27
3150;BME280;32503;47.748;8.960;2023-03-16T01:37:41;97172.84;;;4.09;59.44
3150;BME280;32503;47.748;8.960;2023-03-16T01:40:10;97176.38;;;4.18;59.23
3150;BME280;32503;47.748;8.960;2023-03-16T01:42:46;97168.00;;;4.11;59.40
3150;BME280;32503;47.748;8.960;2023-03-16T01:46:11;97171.69;;;4.02;59.41
3150;BME280;32503;47.748;8.960;2023-03-16T01:48:47;97167.50;;;3.87;59.92
3150;BME280;32503;47.748;8.960;2023-03-16T01:51:20;97159.72;;;3.76;59.72
3150;BME280;32503;47.748;8.960;2023-03-16T01:53:53;97166.63;;;3.77;59.77
3150;BME280;32503;47.748;8.960;2023-03-16T01:56:25;97163.09;;;3.68;60.54
3150;BME280;32503;47.748;8.960;2023-03-16T01:58:57;97157.13;;;3.71;60.24
3150;BME280;32503;47.748;8.960;2023-03-16T02:01:27;97153.59;;;3.62;60.49
3150;BME280;32503;47.748;8.960;2023-03-16T02:04:01;97149.53;;;3.65;60.25
3150;BME280;32503;47.748;8.960;2023-03-16T02:06:31;97144.59;;;3.58;60.33
3150;BME280;32503;47.748;8.960;2023-03-16T02:08:59;97137.22;;;3.41;61.08
3150;BME280;32503;47.748;8.960;2023-03-16T02:11:26;97151.97;;;3.38;61.37
3150;BME280;32503;47.748;8.960;2023-03-16T02:13:55;97144.66;;;3.30;62.04
3150;BME280;32503;47.748;8.960;2023-03-16T02:16:25;97147.91;;;3.41;61.95
3150;BME280;32503;47.748;8.960;2023-03-16T02:18:52;97135.72;;;3.49;61.72
3150;BME280;32503;47.748;8.960;2023-03-16T02:21:25;97141.06;;;3.49;61.38
3150;BME280;32503;47.748;8.960;2023-03-16T02:23:58;97140.94;;;3.54;61.16
3150;BME280;32503;47.748;8.960;2023-03-16T02:26:32;97140.94;;;3.54;60.58
3150;BME280;32503;47.748;8.960;2023-03-16T02:29:13;97146.00;;;3.55;61.11
3150;BME280;32503;47.748;8.960;2023-03-16T02:31:46;97151.97;;;3.38;61.68
3150;BME280;32503;47.748;8.960;2023-03-16T02:34:14;97138.72;;;3.33;61.36
3150;BME280;32503;47.748;8.960;2023-03-16T02:36:44;97141.19;;;3.30;62.18
3150;BME280;32503;47.748;8.960;2023-03-16T02:39:13;97137.72;;;3.29;62.13
3150;BME280;32503;47.748;8.960;2023-03-16T02:41:40;97143.66;;;3.26;62.15
3150;BME280;32503;47.748;8.960;2023-03-16T02:44:12;97148.81;;;3.22;62.67
3150;BME280;32503;47.748;8.960;2023-03-16T02:46:41;97140.22;;;3.26;61.88
3150;BME280;32503;47.748;8.960;2023-03-16T02:49:16;97137.84;;;3.24;61.70
3150;BME280;32503;47.748;8.960;2023-03-16T02:51:46;97134.69;;;3.22;62.14
3150;BME280;32503;47.748;8.960;2023-03-16T02:54:13;97129.94;;;3.19;62.23
3150;BME280;32503;47.748;8.960;2023-03-16T02:56:40;97121.31;;;3.22;61.91
3150;BME280;32503;47.748;8.960;2023-03-16T02:59:08;97126.28;;;3.15;62.13
3150;BME280;32503;47.748;8.960;2023-03-16T03:01:35;97131.13;;;3.13;62.49
3150;BME280;32503;47.748;8.960;2023-03-16T03:04:02;97126.47;;;3.04;63.17
3150;BME280;32503;47.748;8.960;2023-03-16T03:06:32;97132.31;;;3.07;62.67
3150;BME280;32503;47.748;8.960;2023-03-16T03:08:59;97128.84;;;3.06;62.78
3150;BME280;32503;47.748;8.960;2023-03-16T03:11:27;97128.47;;;3.13;62.99
3150;BME280;32503;47.748;8.960;2023-03-16T03:13:54;97127.44;;;3.22;62.40
3150;BME280;32503;47.748;8.960;2023-03-16T03:16:22;97125.88;;;3.21;62.28
3150;BME280;32503;47.748;8.960;2023-03-16T03:18:49;97131.31;;;3.16;62.01
3150;BME280;32503;47.748;8.960;2023-03-16T03:21:18;97127.34;;;3.14;61.98
3150;BME280;32503;47.748;8.960;2023-03-16T03:23:46;97122.72;;;3.06;62.32
3150;BME280;32503;47.748;8.960;2023-03-16T03:26:14;97120.16;;;3.00;62.84
3150;BME280;32503;47.748;8.960;2023-03-16T03:28:43;97116.41;;;2.88;63.10
3150;BME280;32503;47.748;8.960;2023-03-16T03:31:13;97126.69;;;2.94;63.22
3150;BME280;32503;47.748;8.960;2023-03-16T03:33:40;97115.63;;;2.87;63.15
3150;BME280;32503;47.748;8.960;2023-03-16T03:36:07;97116.50;;;2.96;63.19
3150;BME280;32503;47.748;8.960;2023-03-16T03:38:36;97113.63;;;2.93;62.71
3150;BME280;32503;47.748;8.960;2023-03-16T03:41:05;97117.88;;;2.94;62.40
3150;BME280;32503;47.748;8.960;2023-03-16T03:43:33;97118.97;;;2.93;62.88
3150;BME280;32503;47.748;8.960;2023-03-16T03:46:02;97121.06;;;2.96;62.43
3150;BME280;32503;47.748;8.960;2023-03-16T03:48:29;97119.78;;;2.93;62.43
3150;BME280;32503;47.748;8.960;2023-03-16T03:50:57;97116.41;;;2.88;62.78
3150;BME280;32503;47.748;8.960;2023-03-16T03:53:24;97124.72;;;2.86;62.54
3150;BME280;32503;47.748;8.960;2023-03-16T03:55:52;97133.81;;;2.85;62.51
3150;BME280;32503;47.748;8.960;2023-03-16T03:58:20;97130.06;;;2.86;62.84
3150;BME280;32503;47.748;8.960;2023-03-16T04:00:48;97125.13;;;2.79;62.70
3150;BME280;32503;47.748;8.960;2023-03-16T04:03:15;97118.78;;;2.75;62.61
3150;BME280;32503;47.748;8.960;2023-03-16T04:05:42;97124.34;;;2.79;62.38
3150;BME280;32503;47.748;8.960;2023-03-16T04:08:09;97121.16;;;2.77;62.80
3150;BME280;32503;47.748;8.960;2023-03-16T04:10:36;97122.84;;;2.73;62.93
3150;BME280;32503;47.748;8.960;2023-03-16T04:13:03;97118.91;;;2.70;62.83
3150;BME280;32503;47.748;8.960;2023-03-16T04:15:31;97117.69;;;2.62;63.18
3150;BME280;32503;47.748;8.960;2023-03-16T04:17:59;97108.22;;;2.56;63.93
3150;BME280;32503;47.748;8.960;2023-03-16T04:20:28;97112.25;;;2.54;63.60
3150;BME280;32503;47.748;8.960;2023-03-16T04:22:55;97116.59;;;2.50;63.79
3150;BME280;32503;47.748;8.960;2023-03-16T04:25:25;97099.19;;;2.38;63.99
3150;BME280;32503;47.748;8.960;2023-03-16T04:27:53;97103.44;;;2.39;64.59
3150;BME280;32503;47.748;8.960;2023-03-16T04:30:20;97090.69;;;2.36;64.84
3150;BME280;32503;47.748;8.960;2023-03-16T04:32:50;97092.88;;;2.48;64.01
3150;BME280;32503;47.748;8.960;2023-03-16T04:35:18;97096.31;;;2.49;64.08
3150;BME280;32503;47.748;8.960;2023-03-16T04:37:45;97098.22;;;2.48;64.28
3150;BME280;32503;47.748;8.960;2023-03-16T04:40:12;97096.84;;;2.51;64.38
3150;BME280;32503;47.748;8.960;2023-03-16T04:42:43;97091.88;;;2.44;64.56
3150;BME280;32503;47.748;8.960;2023-03-16T04:45:11;97094.66;;;2.53;63.70
3150;BME280;32503;47.748;8.960;2023-03-16T04:47:39;97084.19;;;2.56;63.71
3150;BME280;32503;47.748;8.960;2023-03-16T04:50:09;97083.19;;;2.66;63.24
3150;BME280;32503;47.748;8.960;2023-03-16T04:52:36;97069.34;;;2.50;63.51
3150;BME280;32503;47.748;8.960;2023-03-16T04:55:04;97080.81;;;2.51;63.26
3150;BME280;32503;47.748;8.960;2023-03-16T04:57:31;97075.16;;;2.52;63.29
3150;BME280;32503;47.748;8.960;2023-03-16T04:59:59;97064.09;;;2.45;63.61
3150;BME280;32503;47.748;8.960;2023-03-16T05:02:27;97072.19;;;2.40;63.94
3150;BME280;32503;47.748;8.960;2023-03-16T05:04:54;97079.13;;;2.41;63.84
3150;BME280;32503;47.748;8.960;2023-03-16T05:07:22;97074.25;;;2.29;63.47
3150;BME280;32503;47.748;8.960;2023-03-16T05:09:49;97074.56;;;2.27;63.96
3150;BME280;32503;47.748;8.960;2023-03-16T05:12:16;97069.84;;;2.24;63.95
3150;BME280;32503;47.748;8.960;2023-03-16T05:14:43;97076.63;;;2.17;64.48
3150;BME280;32503;47.748;8.960;2023-03-16T05:17:10;97068.13;;;2.15;64.40
3150;BME280;32503;47.748;8.960;2023-03-16T05:19:39;97068.63;;;2.17;64.63
3150;BME280;32503;47.748;8.960;2023-03-16T05:22:07;97069.50;;;2.12;64.67
3150;BME280;32503;47.748;8.960;2023-03-16T05:24:36;97075.91;;;2.11;65.42
3150;BME280;32503;47.748;8.960;2023-03-16T05:27:03;97073.84;;;2.08;65.51
3150;BME280;32503;47.748;8.960;2023-03-16T05:29:30;97069.69;;;2.02;65.12
3150;BME280;32503;47.748;8.960;2023-03-16T05:31:57;97065.84;;;2.08;64.54
3150;BME280;32503;47.748;8.960;2023-03-16T05:34:25;97072.19;;;2.12;64.49
3150;BME280;32503;47.748;8.960;2023-03-16T05:36:52;97067.34;;;2.14;64.76
3150;BME280;32503;47.748;8.960;2023-03-16T05:39:19;97072.38;;;2.16;64.59
3150;BME280;32503;47.748;8.960;2023-03-16T05:41:49;97071.69;;;2.10;64.92
3150;BME280;32503;47.748;8.960;2023-03-16T05:44:16;97066.56;;;2.14;65.03
3150;BME280;32503;47.748;8.960;2023-03-16T05:46:43;97068.91;;;2.15;64.92
3150;BME280;32503;47.748;8.960;2023-03-16T05:49:10;97065.56;;;2.23;64.61
3150;BME280;32503;47.748;8.960;2023-03-16T05:51:38;97068.44;;;2.27;64.75
3150;BME280;32503;47.748;8.960;2023-03-16T05:54:05;97054.91;;;2.23;64.62
3150;BME280;32503;47.748;8.960;2023-03-16T05:56:32;97067.38;;;2.42;64.63
3150;BME280;32503;47.748;8.960;2023-03-16T05:59:01;97049.47;;;2.42;64.07
3150;BME280;32503;47.748;8.960;2023-03-16T06:01:28;97055.13;;;2.55;64.35
3150;BME280;32503;47.748;8.960;2023-03-16T06:03:55;97062.19;;;3.01;64.07
3150;BME280;32503;47.748;8.960;2023-03-16T06:06:22;97063.56;;;3.71;63.23
3150;BME280;32503;47.748;8.960;2023-03-16T06:08:49;97059.97;;;4.39;61.99
3150;BME280;32503;47.748;8.960;2023-03-16T06:11:17;97059.72;;;5.15;60.23
3150;BME280;32503;47.748;8.960;2023-03-16T06:13:44;97059.41;;;5.78;58.72
3150;BME280;32503;47.748;8.960;2023-03-16T06:16:12;97060.25;;;6.34;57.05
3150;BME280;32503;47.748;8.960;2023-03-16T06:18:41;97048.75;;;6.93;54.60
3150;BME280;32503;47.748;8.960;2023-03-16T06:21:08;97055.22;;;7.43;53.40
3150;BME280;32503;47.748;8.960;2023-03-16T06:23:35;97062.56;;;7.88;51.23
3150;BME280;32503;47.748;8.960;2023-03-16T06:26:03;97066.28;;;8.42;49.37
3150;BME280;32503;47.748;8.960;2023-03-16T06:28:30;97067.50;;;8.90;48.24
3150;BME280;32503;47.748;8.960;2023-03-16T06:30:57;97069.69;;;9.25;47.66
3150;BME280;32503;47.748;8.960;2023-03-16T06:33:26;97073.66;;;9.56;46.95
3150;BME280;32503;47.748;8.960;2023-03-16T06:35:53;97076.09;;;9.73;46.55
3150;BME280;32503;47.748;8.960;2023-03-16T06:38:20;97078.19;;;10.08;45.54
3150;BME280;32503;47.748;8.960;2023-03-16T06:40:53;97084.38;;;10.69;44.21
3150;BME280;32503;47.748;8.960;2023-03-16T06:43:20;97077.25;;;11.28;43.75
3150;BME280;32503;47.748;8.960;2023-03-16T06:45:48;97076.44;;;12.02;41.00
3150;BME280;32503;47.748;8.960;2023-03-16T06:48:15;97076.28;;;12.57;40.27
3150;BME280;32503;47.748;8.960;2023-03-16T06:50:44;97084.09;;;13.35;39.11
3150;BME280;32503;47.748;8.960;2023-03-16T06:53:11;97074.19;;;14.14;37.57
3150;BME280;32503;47.748;8.960;2023-03-16T06:55:38;97084.19;;;14.85;36.02
3150;BME280;32503;47.748;8.960;2023-03-16T06:58:06;97085.34;;;15.39;34.45
3150;BME280;32503;47.748;8.960;2023-03-16T07:00:33;97079.75;;;15.80;33.96
3150;BME280;32503;47.748;8.960;2023-03-16T07:03:01;97077.09;;;16.09;32.94
3150;BME280;32503;47.748;8.960;2023-03-16T07:05:28;97083.41;;;16.27;33.20
3150;BME280;32503;47.748;8.960;2023-03-16T07:07:57;97081.88;;;16.48;32.75
3150;BME280;32503;47.748;8.960;2023-03-16T07:10:24;97085.03;;;16.75;32.04
3150;BME280;32503;47.748;8.960;2023-03-16T07:12:51;97088.16;;;17.02;31.38
3150;BME280;32503;47.748;8.960;2023-03-16T07:15:20;97092.47;;;16.89;31.27
3150;BME280;32503;47.748;8.960;2023-03-16T07:17:47;97080.38;;;16.90;31.41
3150;BME280;32503;47.748;8.960;2023-03-16T07:20:15;97083.47;;;16.99;30.56
3150;BME280;32503;47.748;8.960;2023-03-16T07:22:42;97084.69;;;16.84;31.38
3150;BME280;32503;47.748;8.960;2023-03-16T07:25:11;97087.38;;;16.73;31.71
3150;BME280;32503;47.748;8.960;2023-03-16T07:27:38;97097.09;;;16.53;31.97
3150;BME280;32503;47.748;8.960;2023-03-16T07:30:10;97091.22;;;16.33;32.49
3150;BME280;32503;47.748;8.960;2023-03-16T07:32:39;97097.41;;;16.22;32.75
3150;BME280;32503;47.748;8.960;2023-03-16T07:35:07;97106.75;;;16.25;32.58
3150;BME280;32503;47.748;8.960;2023-03-16T07:37:34;97104.00;;;16.14;33.12
3150;BME280;32503;47.748;8.960;2023-03-16T07:40:01;97104.69;;;15.89;32.81
3150;BME280;32503;47.748;8.960;2023-03-16T07:42:31;97103.44;;;15.69;32.97
3150;BME280;32503;47.748;8.960;2023-03-16T07:45:00;97102.84;;;15.38;33.75
3150;BME280;32503;47.748;8.960;2023-03-16T07:47:27;97106.59;;;15.15;33.68
3150;BME280;32503;47.748;8.960;2023-03-16T07:49:55;97103.47;;;15.13;34.38
3150;BME280;32503;47.748;8.960;2023-03-16T07:52:22;97101.34;;;14.92;34.61
3150;BME280;32503;47.748;8.960;2023-03-16T07:54:49;97105.25;;;14.91;34.87
3150;BME280;32503;47.748;8.960;2023-03-16T07:57:17;97103.75;;;15.01;35.01
3150;BME280;32503;47.748;8.960;2023-03-16T07:59:45;97105.75;;;15.08;34.70
3150;BME280;32503;47.748;8.960;2023-03-16T08:02:14;97106.03;;;14.92;34.65
3150;BME280;32503;47.748;8.960;2023-03-16T08:04:42;97094.69;;;14.45;34.62
3150;BME280;32503;47.748;8.960;2023-03-16T08:07:10;97107.25;;;14.57;35.33
3150;BME280;32503;47.748;8.960;2023-03-16T08:09:37;97104.69;;;14.71;34.42
3150;BME280;32503;47.748;8.960;2023-03-16T08:12:06;97106.06;;;14.17;34.49
3150;BME280;32503;47.748;8.960;2023-03-16T08:14:34;97100.84;;;14.38;35.70
3150;BME280;32503;47.748;8.960;2023-03-16T08:17:04;97104.34;;;14.76;35.18
3150;BME280;32503;47.748;8.960;2023-03-16T08:19:32;97094.03;;;15.00;33.69
3150;BME280;32503;47.748;8.960;2023-03-16T08:21:59;97094.59;;;15.24;33.86
3150;BME280;32503;47.748;8.960;2023-03-16T08:24:27;97091.13;;;15.27;33.88
3150;BME280;32503;47.748;8.960;2023-03-16T08:26:55;97074.44;;;15.35;33.94
3150;BME280;32503;47.748;8.960;2023-03-16T08:29:23;97086.63;;;14.97;33.58
3150;BME280;32503;47.748;8.960;2023-03-16T08:31:52;97076.63;;;15.15;34.37
3150;BME280;32503;47.748;8.960;2023-03-16T08:34:20;97084.75;;;15.08;34.75
3150;BME280;32503;47.748;8.960;2023-03-16T08:36:47;97083.69;;;15.24;34.63
3150;BME280;32503;47.748;8.960;2023-03-16T08:39:14;97071.59;;;15.17;34.15
3150;BME280;32503;47.748;8.960;2023-03-16T08:41:41;97074.41;;;15.28;34.00
3150;BME280;32503;47.748;8.960;2023-03-16T08:44:10;97065.44;;;15.28;33.71
3150;BME280;32503;47.748;8.960;2023-03-16T08:46:38;97057.44;;;15.60;33.58
3150;BME280;32503;47.748;8.960;2023-03-16T08:49:05;97061.59;;;15.36;32.99
3150;BME280;32503;47.748;8.960;2023-03-16T08:51:33;97067.34;;;15.24;32.69
3150;BME280;32503;47.748;8.960;2023-03-16T08:54:01;97064.34;;;14.39;33.92
3150;BME280;32503;47.748;8.960;2023-03-16T08:56:28;97066.34;;;13.44;35.44
3150;BME280;32503;47.748;8.960;2023-03-16T08:58:57;97062.28;;;12.55;37.52
3150;BME280;32503;47.748;8.960;2023-03-16T09:01:24;97062.66;;;11.52;39.19
3150;BME280;32503;47.748;8.960;2023-03-16T09:03:52;97061.19;;;10.68;40.62
3150;BME280;32503;47.748;8.960;2023-03-16T09:06:19;97062.00;;;10.08;41.94
3150;BME280;32503;47.748;8.960;2023-03-16T09:08:48;97051.59;;;10.54;42.02
3150;BME280;32503;47.748;8.960;2023-03-16T09:11:18;97061.00;;;10.60;41.21
3150;BME280;32503;47.748;8.960;2023-03-16T09:13:47;97045.16;;;10.59;41.02
3150;BME280;32503;47.748;8.960;2023-03-16T09:16:15;97056.63;;;10.88;40.00
3150;BME280;32503;47.748;8.960;2023-03-16T09:18:42;97057.63;;;11.15;39.77
3150;BME280;32503;47.748;8.960;2023-03-16T09:21:11;97051.50;;;10.82;40.42
3150;BME280;32503;47.748;8.960;2023-03-16T09:23:41;97059.34;;;10.72;41.05
3150;BME280;32503;47.748;8.960;2023-03-16T09:26:11;97043.13;;;10.88;41.11
3150;BME280;32503;47.748;8.960;2023-03-16T09:28:41;97060.84;;;11.20;40.15
3150;BME280;32503;47.748;8.960;2023-03-16T09:31:14;97057.94;;;11.29;39.39
3150;BME280;32503;47.748;8.960;2023-03-16T09:33:42;97057.31;;;11.36;39.27
3150;BME280;32503;47.748;8.960;2023-03-16T09:36:09;97041.31;;;10.44;40.87
3150;BME280;32503;47.748;8.960;2023-03-16T09:38:38;97054.34;;;11.06;42.12
3150;BME280;32503;47.748;8.960;2023-03-16T09:41:13;97049.06;;;11.48;40.86
3150;BME280;32503;47.748;8.960;2023-03-16T09:43:59;97049.38;;;10.92;40.75
3150;BME280;32503;47.748;8.960;2023-03-16T09:46:32;97045.38;;;11.02;41.81
3150;BME280;32503;47.748;8.960;2023-03-16T09:49:03;97038.84;;;11.42;41.65
3150;BME280;32503;47.748;8.960;2023-03-16T09:51:43;97046.56;;;11.39;39.71
3150;BME280;32503;47.748;8.960;2023-03-16T09:54:22;97045.94;;;11.11;40.09
3150;BME280;32503;47.748;8.960;2023-03-16T09:56:54;97042.34;;;10.87;40.84
3150;BME280;32503;47.748;8.960;2023-03-16T09:59:24;97043.13;;;10.88;41.64
3150;BME280;32503;47.748;8.960;2023-03-16T10:02:15;97049.53;;;11.34;40.30
3150;BME280;32503;47.748;8.960;2023-03-16T10:04:58;97036.09;;;11.57;40.11
3150;BME280;32503;47.748;8.960;2023-03-16T10:07:35;97031.56;;;12.24;39.18
3150;BME280;32503;47.748;8.960;2023-03-16T10:10:19;97027.88;;;12.12;38.40
3150;BME280;32503;47.748;8.960;2023-03-16T10:12:51;97038.38;;;12.37;38.55
3150;BME280;32503;47.748;8.960;2023-03-16T10:15:24;97040.84;;;12.03;37.67
3150;BME280;32503;47.748;8.960;2023-03-16T10:17:57;97034.19;;;11.77;37.09
3150;BME280;32503;47.748;8.960;2023-03-16T10:20:32;97042.44;;;11.65;38.53
3150;BME280;32503;47.748;8.960;2023-03-16T10:23:00;97034.31;;;11.85;38.79
3150;BME280;32503;47.748;8.960;2023-03-16T10:25:41;97035.53;;;12.53;38.71
3150;BME280;32503;47.748;8.960;2023-03-16T10:28:15;97028.72;;;12.89;36.29
3150;BME280;32503;47.748;8.960;2023-03-16T10:30:42;97022.72;;;12.27;36.69
3150;BME280;32503;47.748;8.960;2023-03-16T10:33:20;97028.91;;;12.27;37.59
3150;BME280;32503;47.748;8.960;2023-03-16T10:35:54;97015.31;;;12.74;37.22
3150;BME280;32503;47.748;8.960;2023-03-16T10:38:36;97003.78;;;12.54;37.11
3150;BME280;32503;47.748;8.960;2023-03-16T10:41:21;97010.69;;;13.01;36.91
3150;BME280;32503;47.748;8.960;2023-03-16T10:43:53;97003.91;;;13.18;36.05
3150;BME280;32503;47.748;8.960;2023-03-16T10:46:21;96999.34;;;13.52;36.13
3150;BME280;32503;47.748;8.960;2023-03-16T10:48:54;96992.41;;;13.92;35.12
3150;BME280;32503;47.748;8.960;2023-03-16T10:51:27;96975.34;;;13.95;34.81
3150;BME280;32503;47.748;8.960;2023-03-16T10:54:03;96990.94;;;13.98;35.29
3150;BME280;32503;47.748;8.960;2023-03-16T10:56:35;96979.22;;;14.35;35.69
3150;BME280;32503;47.748;8.960;2023-03-16T10:59:14;96971.28;;;14.64;33.97
3150;BME280;32503;47.748;8.960;2023-03-16T11:01:46;96976.31;;;14.14;33.84
3150;BME280;32503;47.748;8.960;2023-03-16T11:04:15;96978.09;;;14.40;34.65
3150;BME280;32503;47.748;8.960;2023-03-16T11:06:51;96973.22;;;14.60;34.05
3150;BME280;32503;47.748;8.960;2023-03-16T11:09:22;96966.06;;;14.45;34.28
3150;BME280;32503;47.748;8.960;2023-03-16T11:11:51;96956.16;;;14.18;33.80
3150;BME280;32503;47.748;8.960;2023-03-16T11:14:27;96960.50;;;13.48;35.43
3150;BME280;32503;47.748;8.960;2023-03-16T11:17:01;96949.53;;;13.75;35.69
3150;BME280;32503;47.748;8.960;2023-03-16T11:19:32;96948.41;;;13.79;35.35
3150;BME280;32503;47.748;8.960;2023-03-16T11:22:04;96946.56;;;13.87;35.30
3150;BME280;32503;47.748;8.960;2023-03-16T11:24:44;96940.44;;;13.97;34.90
3150;BME280;32503;47.748;8.960;2023-03-16T11:27:21;96948.66;;;14.08;34.98
3150;BME280;32503;47.748;8.960;2023-03-16T11:30:03;96951.59;;;13.51;35.73
3150;BME280;32503;47.748;8.960;2023-03-16T11:32:35;96959.81;;;13.24;36.17
3150;BME280;32503;47.748;8.960;2023-03-16T11:35:12;96951.50;;;13.10;36.94
3150;BME280;32503;47.748;8.960;2023-03-16T11:37:58;96962.81;;;13.46;36.46
3150;BME280;32503;47.748;8.960;2023-03-16T11:40:37;96942.75;;;13.58;36.04
3150;BME280;32503;47.748;8.960;2023-03-16T11:43:29;96944.81;;;13.68;35.60
3150;BME280;32503;47.748;8.960;2023-03-16T11:46:11;96931.78;;;13.84;35.55
3150;BME280;32503;47.748;8.960;2023-03-16T11:48:45;96927.38;;;13.73;35.72
3150;BME280;32503;47.748;8.960;2023-03-16T11:51:35;96924.44;;;13.17;35.96
3150;BME280;32503;47.748;8.960;2023-03-16T11:54:22;96920.59;;;12.92;36.63
3150;BME280;32503;47.748;8.960;2023-03-16T11:56:58;96922.59;;;12.95;36.29
3150;BME280;32503;47.748;8.960;2023-03-16T11:59:57;96921.91;;;13.32;36.15
3150;BME280;32503;47.748;8.960;2023-03-16T12:02:42;96924.38;;;13.44;35.57
3150;BME280;32503;47.748;8.960;2023-03-16T12:05:44;96926.59;;;13.35;34.89
3150;BME280;32503;47.748;8.960;2023-03-16T12:08:52;96924.66;;;13.05;34.92
3150;BME280;32503;47.748;8.960;2023-03-16T12:11:26;96915.97;;;13.22;35.36
3150;BME280;32503;47.748;8.960;2023-03-16T12:14:12;96926.69;;;13.42;34.65
3150;BME280;32503;47.748;8.960;2023-03-16T12:16:45;96925.03;;;13.34;34.21
3150;BME280;32503;47.748;8.960;2023-03-16T12:19:20;96912.84;;;13.20;32.44
3150;BME280;32503;47.748;8.960;2023-03-16T12:22:01;96916.56;;;13.39;32.12
3150;BME280;32503;47.748;8.960;2023-03-16T12:24:37;96921.13;;;13.69;33.13
3150;BME280;32503;47.748;8.960;2023-03-16T12:27:13;96912.31;;;13.79;31.88
3150;BME280;32503;47.748;8.960;2023-03-16T12:30:01;96903.94;;;13.98;31.34
3150;BME280;32503;47.748;8.960;2023-03-16T12:32:41;96910.19;;;14.02;30.81
3150;BME280;32503;47.748;8.960;2023-03-16T12:35:29;96894.03;;;14.24;31.89
3150;BME280;32503;47.748;8.960;2023-03-16T12:38:21;96889.38;;;14.21;28.62
3150;BME280;32503;47.748;8.960;2023-03-16T12:41:03;96895.69;;;13.43;27.74
3150;BME280;32503;47.748;8.960;2023-03-16T12:43:44;96887.50;;;13.09;28.84
3150;BME280;32503;47.748;8.960;2023-03-16T12:46:20;96887.41;;;13.36;29.95
3150;BME280;32503;47.748;8.960;2023-03-16T12:48:54;96885.53;;;13.77;29.37
3150;BME280;32503;47.748;8.960;2023-03-16T12:51:33;96882.34;;;14.16;28.78
3150;BME280;32503;47.748;8.960;2023-03-16T12:54:01;96876.22;;;14.30;27.27
3150;BME280;32503;47.748;8.960;2023-03-16T12:56:31;96879.09;;;13.96;26.74
3150;BME280;32503;47.748;8.960;2023-03-16T12:59:00;96885.22;;;13.86;27.76
3150;BME280;32503;47.748;8.960;2023-03-16T13:01:30;96866.22;;;13.45;27.30
3150;BME280;32503;47.748;8.960;2023-03-16T13:04:09;96882.56;;;13.18;27.40
3150;BME280;32503;47.748;8.960;2023-03-16T13:06:43;96868.41;;;13.02;27.86
3150;BME280;32503;47.748;8.960;2023-03-16T13:09:18;96880.03;;;13.33;28.27
3150;BME280;32503;47.748;8.960;2023-03-16T13:11:48;96871.28;;;12.82;28.93
3150;BME280;32503;47.748;8.960;2023-03-16T13:14:35;96876.81;;;13.27;28.69
3150;BME280;32503;47.748;8.960;2023-03-16T13:17:22;96871.19;;;13.09;28.29
3150;BME280;32503;47.748;8.960;2023-03-16T13:20:03;96875.44;;;13.37;28.81
3150;BME280;32503;47.748;8.960;2023-03-16T13:22:44;96859.91;;;13.75;28.01
3150;BME280;32503;47.748;8.960;2023-03-16T13:25:17;96860.56;;;14.13;28.36
3150;BME280;32503;47.748;8.960;2023-03-16T13:27:50;96859.97;;;14.37;27.12
3150;BME280;32503;47.748;8.960;2023-03-16T13:30:21;96857.91;;;14.23;26.32
3150;BME280;32503;47.748;8.960;2023-03-16T13:32:53;96855.28;;;14.34;26.67
3150;BME280;32503;47.748;8.960;2023-03-16T13:35:26;96856.22;;;14.04;26.59
3150;BME280;32503;47.748;8.960;2023-03-16T13:38:02;96856.06;;;14.35;26.73